createdAt,value
2024-02-07T00:03:01.503Z,8.61
2024-02-07T00:08:05.538Z,8.61
2024-02-07T00:13:13.090Z,8.60
2024-02-07T00:18:19.241Z,8.60
2024-02-07T00:24:10.417Z,8.64
2024-02-07T00:29:11.977Z,8.61
2024-02-07T00:34:18.931Z,8.57
2024-02-07T00:39:26.000Z,8.60
2024-02-07T00:44:33.125Z,8.61
2024-02-07T00:49:37.562Z,8.63
2024-02-07T00:54:53.477Z,8.65
2024-02-07T00:59:56.795Z,8.64
2024-02-07T01:05:28.175Z,8.67
2024-02-07T01:10:37.191Z,8.68
2024-02-07T01:15:41.434Z,8.72
2024-02-07T01:20:45.096Z,8.75
2024-02-07T01:25:52.441Z,8.72
2024-02-07T01:31:17.592Z,8.72
2024-02-07T01:36:23.527Z,8.69
2024-02-07T01:41:52.612Z,8.68
2024-02-07T01:47:15.409Z,8.66
2024-02-07T01:52:46.763Z,8.69
2024-02-07T01:58:11.879Z,8.61
2024-02-07T02:03:16.130Z,8.57
2024-02-07T02:08:28.567Z,8.55
2024-02-07T02:13:35.009Z,8.53
2024-02-07T02:18:47.659Z,8.54
2024-02-07T02:24:25.620Z,8.57
2024-02-07T02:29:38.629Z,8.64
2024-02-07T02:34:44.363Z,8.70
2024-02-07T02:40:25.062Z,8.73
2024-02-07T02:45:55.857Z,8.74
2024-02-07T02:51:04.418Z,8.73
2024-02-07T02:57:28.752Z,8.72
2024-02-07T03:02:46.760Z,8.70
2024-02-07T03:08:15.304Z,8.70
2024-02-07T03:13:53.387Z,8.71
2024-02-07T03:19:00.418Z,8.74
2024-02-07T03:24:04.483Z,8.69
2024-02-07T03:29:08.032Z,8.62
2024-02-07T03:34:11.966Z,8.52
2024-02-07T03:39:18.474Z,8.35
2024-02-07T03:44:22.776Z,8.17
2024-02-07T03:54:31.312Z,7.93
2024-02-07T03:59:55.398Z,7.87
2024-02-07T04:04:59.108Z,7.79
2024-02-07T04:10:04.992Z,7.66
2024-02-07T04:15:28.279Z,7.56
2024-02-07T04:20:50.823Z,7.48
2024-02-07T04:26:12.867Z,7.34
2024-02-07T04:31:38.445Z,7.10
2024-02-07T04:37:00.861Z,6.66
2024-02-07T04:42:30.788Z,6.25
2024-02-07T04:47:56.572Z,5.87
2024-02-07T04:53:18.709Z,5.61
2024-02-07T04:58:41.514Z,5.44
2024-02-07T05:04:03.697Z,5.31
2024-02-07T05:09:28.164Z,5.20
2024-02-07T05:14:50.082Z,5.12
2024-02-07T05:19:54.027Z,4.90
2024-02-07T05:25:03.130Z,4.73
2024-02-07T05:30:10.280Z,4.59
2024-02-07T05:35:13.751Z,4.51
2024-02-07T05:40:17.319Z,4.39
2024-02-07T05:45:21.503Z,4.19
2024-02-07T05:50:25.170Z,4.07
2024-02-07T05:55:29.123Z,3.98
2024-02-07T06:00:42.196Z,3.94
2024-02-07T06:05:46.110Z,3.95
2024-02-07T06:11:00.877Z,3.92
2024-02-07T06:16:12.575Z,3.68
2024-02-07T06:21:16.061Z,3.19
2024-02-07T06:26:23.166Z,2.92
2024-02-07T06:31:27.159Z,2.56
2024-02-07T06:37:31.943Z,2.35
2024-02-07T06:42:55.806Z,2.20
2024-02-07T06:47:59.962Z,2.14
2024-02-07T06:53:04.040Z,2.07
2024-02-07T06:58:07.452Z,2.00
2024-02-07T07:03:11.552Z,1.93
2024-02-07T07:08:15.027Z,1.92
2024-02-07T07:13:18.798Z,1.86
2024-02-07T07:18:34.981Z,1.85
2024-02-07T07:23:43.777Z,1.75
2024-02-07T07:28:47.098Z,1.65
2024-02-07T07:33:51.151Z,1.55
2024-02-07T07:38:56.313Z,1.49
2024-02-07T07:44:00.352Z,1.41
2024-02-07T07:49:04.984Z,1.36
2024-02-07T07:54:29.001Z,1.31
2024-02-07T07:59:35.082Z,1.32
2024-02-07T08:04:44.195Z,1.26
2024-02-07T08:10:02.105Z,1.19
2024-02-07T08:15:07.239Z,1.18
2024-02-07T08:20:11.829Z,1.23
2024-02-07T08:25:15.792Z,1.31
2024-02-07T08:30:19.571Z,1.40
2024-02-07T08:35:24.852Z,1.45
2024-02-07T08:40:32.259Z,1.53
2024-02-07T08:45:47.257Z,1.56
2024-02-07T08:50:53.898Z,1.59
2024-02-07T08:55:58.797Z,1.64
2024-02-07T09:01:25.493Z,1.72
2024-02-07T09:06:49.635Z,1.81
2024-02-07T09:11:52.977Z,1.85
2024-02-07T09:16:56.661Z,1.93
2024-02-07T09:22:06.438Z,1.95
2024-02-07T09:27:53.711Z,1.95
2024-02-07T09:32:59.557Z,1.99
2024-02-07T09:38:41.845Z,1.92
2024-02-07T09:43:56.327Z,1.94
2024-02-07T09:49:14.435Z,2.00
2024-02-07T09:54:39.004Z,2.04
2024-02-07T10:00:05.997Z,2.05
2024-02-07T10:05:23.398Z,2.04
2024-02-07T10:10:28.061Z,2.03
2024-02-07T10:15:32.356Z,2.09
2024-02-07T10:20:53.914Z,2.12
2024-02-07T10:26:28.070Z,2.22
2024-02-07T10:31:55.562Z,2.24
2024-02-07T10:37:00.365Z,2.31
2024-02-07T10:42:10.604Z,2.34
2024-02-07T10:47:55.963Z,2.24
2024-02-07T10:53:00.150Z,2.28
2024-02-07T10:58:10.768Z,2.29
2024-02-07T11:03:31.157Z,2.24
2024-02-07T11:08:42.137Z,2.24
2024-02-07T11:13:55.516Z,2.22
2024-02-07T11:19:10.331Z,2.27
2024-02-07T11:24:23.254Z,2.31
2024-02-07T11:29:42.130Z,2.29
2024-02-07T11:35:04.392Z,2.37
2024-02-07T11:40:38.681Z,2.48
2024-02-07T11:45:45.245Z,2.50
2024-02-07T11:50:51.411Z,2.59
2024-02-07T11:55:57.910Z,2.74
2024-02-07T12:01:09.190Z,2.78
2024-02-07T12:06:14.564Z,2.72
2024-02-07T12:11:33.835Z,2.63
2024-02-07T12:16:48.962Z,2.61
2024-02-07T12:21:52.546Z,2.62
2024-02-07T12:27:26.395Z,2.62
2024-02-07T12:32:38.593Z,2.60
2024-02-07T12:37:43.213Z,2.64
2024-02-07T12:43:10.056Z,2.62
2024-02-07T12:48:14.217Z,2.66
2024-02-07T12:53:22.573Z,2.68
2024-02-07T12:58:26.241Z,2.77
2024-02-07T13:03:44.243Z,2.78
2024-02-07T13:08:59.921Z,2.77
2024-02-07T13:14:12.988Z,2.84
2024-02-07T13:19:16.999Z,2.91
2024-02-07T13:24:21.927Z,3.02
2024-02-07T13:29:27.905Z,3.02
2024-02-07T13:34:31.590Z,2.93
2024-02-07T13:39:44.132Z,2.95
2024-02-07T13:45:13.370Z,2.97
2024-02-07T13:50:17.024Z,2.90
2024-02-07T13:55:46.635Z,2.90
2024-02-07T14:01:17.099Z,2.79
2024-02-07T14:06:41.183Z,2.76
2024-02-07T14:11:47.488Z,2.73
2024-02-07T14:16:57.735Z,2.67
2024-02-07T14:22:13.258Z,2.67
2024-02-07T14:27:28.094Z,2.65
2024-02-07T14:32:36.682Z,2.62
2024-02-07T14:37:40.602Z,2.62
2024-02-07T14:42:45.016Z,2.61
2024-02-07T14:47:51.393Z,2.55
2024-02-07T14:52:54.961Z,2.55
2024-02-07T14:58:01.614Z,2.58
2024-02-07T15:03:11.792Z,2.58
2024-02-07T15:08:36.436Z,2.51
2024-02-07T15:13:43.492Z,2.47
2024-02-07T15:18:52.464Z,2.45
2024-02-07T15:23:59.182Z,2.42
2024-02-07T15:29:15.279Z,2.40
2024-02-07T15:34:56.834Z,2.40
2024-02-07T15:40:13.378Z,2.35
2024-02-07T15:45:26.183Z,2.31
2024-02-07T15:50:32.867Z,2.27
2024-02-07T15:55:43.933Z,2.23
2024-02-07T16:00:48.637Z,2.20
2024-02-07T16:06:01.100Z,2.19
2024-02-07T16:11:10.006Z,2.16
2024-02-07T16:16:13.593Z,2.13
2024-02-07T16:21:17.898Z,2.11
2024-02-07T16:26:36.767Z,2.08
2024-02-07T16:31:43.066Z,2.04
2024-02-07T16:37:09.721Z,2.01
2024-02-07T16:42:18.418Z,1.98
2024-02-07T16:47:34.082Z,1.96
2024-02-07T16:52:38.235Z,1.93
2024-02-07T16:57:42.069Z,1.89
2024-02-07T17:02:47.008Z,1.87
2024-02-07T17:07:52.085Z,1.82
2024-02-07T17:12:58.415Z,1.78
2024-02-07T17:18:01.850Z,1.74
2024-02-07T17:23:05.647Z,1.70
2024-02-07T17:28:10.055Z,1.70
2024-02-07T17:33:14.561Z,1.69
2024-02-07T17:38:36.118Z,1.65
2024-02-07T17:43:39.854Z,1.64
2024-02-07T17:48:43.503Z,1.63
2024-02-07T17:53:47.280Z,1.60
2024-02-07T17:58:51.234Z,1.57
2024-02-07T18:03:55.166Z,1.55
2024-02-07T18:08:58.629Z,1.48
2024-02-07T18:14:13.380Z,1.44
2024-02-07T18:19:17.098Z,1.39
2024-02-07T18:24:40.943Z,1.34
2024-02-07T18:29:53.583Z,1.28
2024-02-07T18:34:57.724Z,1.23
2024-02-07T18:40:01.865Z,1.19
2024-02-07T18:45:06.433Z,1.14
2024-02-07T18:50:18.325Z,1.13
2024-02-07T18:55:22.537Z,1.13
2024-02-07T19:00:26.665Z,1.11
2024-02-07T19:05:31.820Z,1.06
2024-02-07T19:10:35.643Z,0.99
2024-02-07T19:15:39.554Z,0.90
2024-02-07T19:20:43.418Z,0.85
2024-02-07T19:25:47.395Z,0.81
2024-02-07T19:30:51.257Z,0.77
2024-02-07T19:36:11.695Z,0.77
2024-02-07T19:42:03.508Z,0.76
2024-02-07T19:49:29.196Z,0.74
2024-02-07T20:01:12.276Z,0.71
2024-02-07T20:06:32.137Z,0.71
2024-02-07T20:11:57.001Z,0.64
2024-02-07T20:17:52.600Z,0.63
2024-02-07T20:24:09.187Z,0.56
2024-02-07T20:29:54.644Z,0.47
2024-02-07T20:35:08.671Z,0.40
2024-02-07T20:40:42.844Z,0.38
2024-02-07T20:45:46.609Z,0.37
2024-02-07T20:50:50.280Z,0.35
2024-02-07T20:56:06.141Z,0.35
2024-02-07T21:01:53.473Z,0.31
2024-02-07T21:07:31.716Z,0.31
2024-02-07T21:12:40.871Z,0.37
2024-02-07T21:18:15.179Z,0.39
2024-02-07T21:23:23.234Z,0.39
2024-02-07T21:29:06.052Z,0.40
2024-02-07T21:34:15.076Z,0.43
2024-02-07T21:39:26.623Z,0.43
2024-02-07T21:44:38.575Z,0.41
2024-02-07T21:50:05.888Z,0.39
2024-02-07T21:55:47.903Z,0.39
2024-02-07T22:01:12.149Z,0.39
2024-02-07T22:07:16.691Z,0.37
2024-02-07T22:12:25.042Z,0.32
2024-02-07T22:17:49.111Z,0.29
2024-02-07T22:23:13.055Z,0.30
2024-02-07T22:28:16.641Z,0.22
2024-02-07T22:33:22.818Z,0.16
2024-02-07T22:38:44.429Z,0.11
2024-02-07T22:43:50.318Z,0.08
2024-02-07T22:48:54.097Z,0.03
2024-02-07T22:53:57.737Z,-0.02
2024-02-07T22:59:10.705Z,-0.06
2024-02-07T23:04:34.852Z,-0.11
2024-02-07T23:09:46.098Z,-0.16
2024-02-07T23:14:52.419Z,-0.19
2024-02-07T23:19:56.526Z,-0.24
2024-02-07T23:25:04.513Z,-0.26
2024-02-07T23:30:09.276Z,-0.31
2024-02-07T23:35:16.735Z,-0.42
2024-02-07T23:40:39.789Z,-0.50
2024-02-07T23:46:05.518Z,-0.55
2024-02-07T23:51:36.430Z,-0.56
2024-02-07T23:57:14.843Z,-0.56
